Albina Airport


Codes: SMBN/ABN
Name: Albina Airport
City: Albina
Country: Suriname
Elevation: 19 ft.

Photos at Albina Airport


   Photos courtesy of SpottingLog. You can add your own sightings and photos by signing up for a free trial today.



No photos found.

Weather at Albina Airport


Time (UTC)DescriptionTempratureWindCloud coverageVisibilityPressureHumidity
26-Jun-2024 00:00Moderate Rain23°C2 mph, N100%6973m1013hPa98%
26-Jun-2024 03:00Light Rain23°C0 mph, NW100%10000m1014hPa98%
26-Jun-2024 06:00Light Rain23°C2 mph, NW100%10000m1013hPa98%
26-Jun-2024 09:00Light Rain23°C2 mph, N100%10000m1014hPa99%
26-Jun-2024 12:00Light Rain24°C2 mph, NE99%7805m1016hPa98%
26-Jun-2024 15:00Light Rain24°C2 mph, NE98%10000m1015hPa96%
26-Jun-2024 18:00Light Rain24°C0 mph, N99%10000m1013hPa98%
26-Jun-2024 21:00Light Rain23°C0 mph, NE100%10000m1013hPa98%
27-Jun-2024 00:00Overcast Clouds22°C2 mph, N100%10000m1015hPa99%
27-Jun-2024 03:00Overcast Clouds22°C2 mph, NW100%10000m1015hPa98%
27-Jun-2024 06:00Overcast Clouds22°C0 mph, E100%10000m1013hPa98%
27-Jun-2024 09:00Overcast Clouds22°C0 mph, E96%10000m1013hPa98%
27-Jun-2024 12:00Overcast Clouds26°C2 mph, SE91%10000m1015hPa81%
27-Jun-2024 15:00Broken Clouds31°C4 mph, SE64%10000m1014hPa54%
27-Jun-2024 18:00Light Rain28°C4 mph, E67%10000m1011hPa69%
27-Jun-2024 21:00Light Rain26°C4 mph, NE80%10000m1011hPa80%
28-Jun-2024 00:00Scattered Clouds23°C2 mph, NE48%10000m1013hPa94%
28-Jun-2024 03:00Few Clouds22°C2 mph, E14%10000m1013hPa94%
28-Jun-2024 06:00Few Clouds22°C2 mph, SE17%10000m1011hPa96%
28-Jun-2024 09:00Few Clouds21°C2 mph, SE16%10000m1012hPa98%
28-Jun-2024 12:00Few Clouds27°C4 mph, E14%10000m1013hPa74%
28-Jun-2024 15:00Clear Sky31°C4 mph, E6%10000m1013hPa49%
28-Jun-2024 18:00Clear Sky33°C4 mph, NE7%10000m1010hPa45%
28-Jun-2024 21:00Light Rain26°C7 mph, NE33%10000m1010hPa80%
29-Jun-2024 00:00Few Clouds23°C2 mph, E19%10000m1013hPa95%
29-Jun-2024 03:00Light Rain23°C2 mph, E22%10000m1013hPa99%
29-Jun-2024 06:00Scattered Clouds23°C2 mph, SE27%10000m1012hPa99%
29-Jun-2024 09:00Scattered Clouds22°C2 mph, E38%10000m1013hPa99%
29-Jun-2024 12:00Scattered Clouds26°C4 mph, E36%10000m1014hPa86%
29-Jun-2024 15:00Light Rain30°C4 mph, NE43%10000m1014hPa65%
29-Jun-2024 18:00Light Rain29°C4 mph, E51%10000m1012hPa77%
29-Jun-2024 21:00Light Rain26°C4 mph, NE100%10000m1012hPa85%
30-Jun-2024 00:00Light Rain23°C2 mph, NE100%10000m1014hPa97%
30-Jun-2024 03:00Light Rain23°C2 mph, E100%5766m1015hPa99%
30-Jun-2024 06:00Light Rain23°C2 mph, NE85%10000m1013hPa98%
30-Jun-2024 09:00Light Rain22°C2 mph, E36%10000m1013hPa99%
30-Jun-2024 12:00Scattered Clouds26°C2 mph, NE38%10000m1014hPa86%
30-Jun-2024 15:00Scattered Clouds33°C2 mph, NE30%10000m1013hPa50%
30-Jun-2024 18:00Light Rain27°C4 mph, E54%7633m1012hPa88%
30-Jun-2024 21:00Moderate Rain25°C4 mph, NE99%5755m1011hPa95%